createdAt,value
2023-05-08T00:01:46.946Z,49.80
2023-05-08T00:04:15.030Z,49.87
2023-05-08T00:06:43.051Z,49.87
2023-05-08T00:09:11.178Z,49.83
2023-05-08T00:11:40.556Z,49.63
2023-05-08T00:14:08.430Z,49.47
2023-05-08T00:16:37.280Z,49.40
2023-05-08T00:19:05.272Z,49.67
2023-05-08T00:21:33.100Z,49.60
2023-05-08T00:24:00.941Z,49.97
2023-05-08T00:26:28.755Z,49.60
2023-05-08T00:28:57.936Z,49.60
2023-05-08T00:31:26.299Z,49.63
2023-05-08T00:33:54.225Z,49.73
2023-05-08T00:36:22.016Z,49.67
2023-05-08T00:38:50.144Z,49.50
2023-05-08T00:41:18.023Z,49.50
2023-05-08T00:43:46.524Z,49.37
2023-05-08T00:46:15.767Z,49.60
2023-05-08T00:48:44.098Z,49.37
2023-05-08T00:51:12.677Z,49.43
2023-05-08T00:53:43.154Z,49.37
2023-05-08T00:56:13.505Z,49.10
2023-05-08T00:58:43.052Z,49.07
2023-05-08T01:01:12.307Z,49.40
2023-05-08T01:03:42.005Z,49.50
2023-05-08T01:06:09.943Z,49.47
2023-05-08T01:08:37.931Z,49.60
2023-05-08T01:11:13.807Z,49.30
2023-05-08T01:13:52.503Z,48.97
2023-05-08T01:16:30.301Z,49.03
2023-05-08T01:19:05.190Z,49.33
2023-05-08T01:21:39.808Z,49.33
2023-05-08T01:24:45.293Z,49.53
2023-05-08T01:27:36.255Z,49.00
2023-05-08T01:30:32.845Z,49.00
2023-05-08T01:33:09.311Z,49.03
2023-05-08T01:35:46.279Z,48.90
2023-05-08T01:38:22.618Z,49.00
2023-05-08T01:40:55.036Z,48.90
2023-05-08T01:43:29.568Z,48.73
2023-05-08T01:46:00.288Z,48.80
2023-05-08T01:48:33.744Z,49.07
2023-05-08T01:51:05.705Z,48.90
2023-05-08T01:53:38.617Z,49.00
2023-05-08T01:56:12.465Z,48.97
2023-05-08T01:58:42.693Z,49.03
2023-05-08T02:01:11.607Z,49.17
2023-05-08T02:03:42.678Z,49.00
2023-05-08T02:06:13.474Z,48.90
2023-05-08T02:08:44.122Z,49.00
2023-05-08T02:11:14.202Z,49.00
2023-05-08T02:13:44.184Z,48.73
2023-05-08T02:16:13.516Z,48.87
2023-05-08T02:18:53.312Z,48.73
2023-05-08T02:21:22.349Z,49.00
2023-05-08T02:23:51.417Z,48.73
2023-05-08T02:26:21.332Z,48.83
2023-05-08T02:28:50.428Z,48.70
2023-05-08T02:31:19.684Z,48.77
2023-05-08T02:33:50.615Z,48.37
2023-05-08T02:36:20.019Z,48.43
2023-05-08T02:38:51.239Z,48.50
2023-05-08T02:41:22.615Z,48.83
2023-05-08T02:43:51.830Z,48.93
2023-05-08T02:46:24.226Z,48.43
2023-05-08T02:49:00.928Z,48.67
2023-05-08T02:51:40.570Z,48.80
2023-05-08T02:54:11.737Z,48.77
2023-05-08T02:56:45.271Z,48.43
2023-05-08T02:59:19.090Z,48.70
2023-05-08T03:01:55.093Z,48.17
2023-05-08T03:04:32.993Z,48.83
2023-05-08T03:07:02.330Z,48.67
2023-05-08T03:09:39.878Z,48.57
2023-05-08T03:12:13.717Z,48.17
2023-05-08T03:14:45.920Z,48.63
2023-05-08T03:17:17.258Z,48.73
2023-05-08T03:19:51.877Z,48.50
2023-05-08T03:22:22.397Z,48.60
2023-05-08T03:24:52.800Z,48.17
2023-05-08T03:27:21.873Z,48.57
2023-05-08T03:29:52.348Z,48.23
2023-05-08T03:32:22.795Z,48.43
2023-05-08T03:34:53.337Z,48.33
2023-05-08T03:37:21.553Z,48.70
2023-05-08T03:39:49.869Z,48.60
2023-05-08T03:42:21.838Z,48.37
2023-05-08T03:44:52.133Z,48.20
2023-05-08T03:47:21.906Z,48.57
2023-05-08T03:49:52.357Z,48.40
2023-05-08T03:52:20.612Z,48.50
2023-05-08T03:54:48.672Z,48.70
2023-05-08T03:57:17.734Z,48.33
2023-05-08T03:59:51.938Z,48.57
2023-05-08T04:02:26.759Z,48.40
2023-05-08T04:05:02.882Z,48.33
2023-05-08T04:07:37.853Z,48.97
2023-05-08T04:10:11.042Z,48.73
2023-05-08T04:12:46.339Z,48.53
2023-05-08T04:15:20.550Z,48.53
2023-05-08T04:17:51.618Z,48.37
2023-05-08T04:20:25.442Z,48.57
2023-05-08T04:22:55.733Z,48.33
2023-05-08T04:25:25.098Z,49.00
2023-05-08T04:27:55.009Z,48.53
2023-05-08T04:30:23.826Z,48.73
2023-05-08T04:32:53.064Z,49.00
2023-05-08T04:35:22.483Z,48.30
2023-05-08T04:37:50.384Z,48.83
2023-05-08T04:40:18.840Z,48.57
2023-05-08T04:42:47.707Z,48.40
2023-05-08T04:45:18.358Z,48.67
2023-05-08T04:47:46.369Z,48.47
2023-05-08T04:50:14.371Z,48.53
2023-05-08T04:52:44.022Z,48.57
2023-05-08T04:55:12.284Z,48.43
2023-05-08T04:57:40.561Z,48.67
2023-05-08T05:00:10.592Z,48.80
2023-05-08T05:02:41.378Z,48.57
2023-05-08T05:05:09.801Z,48.57
2023-05-08T05:07:37.726Z,48.83
2023-05-08T05:10:08.793Z,49.10
2023-05-08T05:12:36.778Z,48.97
2023-05-08T05:15:06.538Z,48.70
2023-05-08T05:17:36.073Z,48.53
2023-05-08T05:20:04.839Z,48.50
2023-05-08T05:22:33.943Z,48.70
2023-05-08T05:25:02.107Z,48.83
2023-05-08T05:27:31.412Z,48.83
2023-05-08T05:29:59.295Z,48.80
2023-05-08T05:32:27.791Z,48.93
2023-05-08T05:34:56.551Z,48.50
2023-05-08T05:37:24.543Z,49.07
2023-05-08T05:39:53.470Z,48.97
2023-05-08T05:42:21.521Z,49.13
2023-05-08T05:44:50.704Z,48.93
2023-05-08T05:47:18.781Z,49.10
2023-05-08T05:49:47.414Z,48.73
2023-05-08T05:52:16.192Z,48.80
2023-05-08T05:54:44.378Z,48.97
2023-05-08T05:57:13.066Z,48.93
2023-05-08T05:59:41.421Z,48.60
2023-05-08T06:02:14.426Z,48.90
2023-05-08T06:04:42.498Z,48.47
2023-05-08T06:07:10.414Z,48.37
2023-05-08T06:09:38.644Z,48.47
2023-05-08T06:12:08.138Z,49.17
2023-05-08T06:14:36.601Z,49.03
2023-05-08T06:17:04.941Z,49.13
2023-05-08T06:19:34.249Z,48.47
2023-05-08T06:22:03.180Z,48.57
2023-05-08T06:24:31.197Z,48.73
2023-05-08T06:26:59.228Z,48.67
2023-05-08T06:29:27.082Z,49.03
2023-05-08T06:31:55.551Z,48.77
2023-05-08T06:34:23.382Z,48.80
2023-05-08T06:36:52.556Z,48.80
2023-05-08T06:39:20.418Z,48.67
2023-05-08T06:41:48.875Z,48.70
2023-05-08T06:44:24.995Z,48.80
2023-05-08T06:46:52.969Z,48.70
2023-05-08T06:49:20.941Z,48.97
2023-05-08T06:51:48.765Z,48.80
2023-05-08T06:54:18.826Z,49.17
2023-05-08T06:56:46.862Z,49.00
2023-05-08T06:59:14.749Z,49.23
2023-05-08T07:01:42.697Z,49.07
2023-05-08T07:04:10.516Z,49.17
2023-05-08T07:06:38.316Z,49.43
2023-05-08T07:09:06.292Z,49.70
2023-05-08T07:11:35.874Z,49.67
2023-05-08T07:14:03.795Z,49.73
2023-05-08T07:16:31.799Z,49.73
2023-05-08T07:18:59.782Z,49.93
2023-05-08T07:21:27.810Z,49.50
2023-05-08T07:23:55.695Z,49.43
2023-05-08T07:26:23.548Z,50.17
2023-05-08T07:28:54.119Z,50.17
2023-05-08T07:31:22.318Z,50.00
2023-05-08T07:33:50.306Z,49.90
2023-05-08T07:36:18.161Z,49.70
2023-05-08T07:38:46.003Z,49.83
2023-05-08T07:41:13.964Z,49.57
2023-05-08T07:43:43.482Z,49.50
2023-05-08T07:46:18.775Z,49.53
2023-05-08T07:48:46.856Z,49.50
2023-05-08T07:51:15.062Z,49.60
2023-05-08T07:53:42.865Z,49.67
2023-05-08T07:56:10.694Z,50.10
2023-05-08T07:58:38.774Z,49.93
2023-05-08T08:01:06.599Z,50.43
2023-05-08T08:03:36.574Z,50.67
2023-05-08T08:06:04.826Z,50.87
2023-05-08T08:08:32.664Z,51.07
2023-05-08T08:11:01.724Z,51.17
2023-05-08T08:13:31.553Z,50.93
2023-05-08T08:15:59.643Z,50.77
2023-05-08T08:18:27.480Z,50.83
2023-05-08T08:20:56.724Z,51.23
2023-05-08T08:23:24.574Z,51.03
2023-05-08T08:25:53.497Z,51.07
2023-05-08T08:28:21.324Z,51.30
2023-05-08T08:30:49.324Z,51.27
2023-05-08T08:33:19.028Z,51.30
2023-05-08T08:35:47.069Z,52.07
2023-05-08T08:38:16.598Z,52.27
2023-05-08T08:40:54.110Z,52.23
2023-05-08T08:43:22.390Z,52.57
2023-05-08T08:45:50.218Z,52.43
2023-05-08T08:48:20.856Z,52.90
2023-05-08T08:50:52.241Z,53.17
2023-05-08T08:53:27.177Z,53.07
2023-05-08T08:55:57.883Z,52.77
2023-05-08T08:58:33.602Z,53.17
2023-05-08T09:01:03.928Z,53.20
2023-05-08T09:03:33.169Z,53.40
2023-05-08T09:06:01.836Z,53.43
2023-05-08T09:08:31.046Z,53.37
2023-05-08T09:10:59.240Z,53.43
2023-05-08T09:13:31.580Z,53.50
2023-05-08T09:16:00.225Z,53.40
2023-05-08T09:18:28.047Z,53.30
2023-05-08T09:20:56.095Z,53.57
2023-05-08T09:23:24.110Z,53.47
2023-05-08T09:25:53.440Z,53.57
2023-05-08T09:28:22.567Z,53.47
2023-05-08T09:30:52.031Z,53.00
2023-05-08T09:33:20.752Z,53.43
2023-05-08T09:35:49.555Z,53.17
2023-05-08T09:38:37.411Z,53.40
2023-05-08T09:41:11.107Z,53.00
2023-05-08T09:43:39.307Z,53.47
2023-05-08T09:46:23.010Z,53.10
2023-05-08T09:48:51.180Z,53.13
2023-05-08T09:51:19.284Z,53.70
2023-05-08T09:53:47.267Z,53.90
2023-05-08T09:56:16.464Z,53.60
2023-05-08T09:58:45.607Z,53.57
2023-05-08T10:01:29.716Z,53.63
2023-05-08T10:03:58.573Z,53.63
2023-05-08T10:06:28.297Z,53.33
2023-05-08T10:09:13.179Z,53.10
2023-05-08T10:11:51.772Z,53.20
2023-05-08T10:14:20.211Z,53.37
2023-05-08T10:16:49.714Z,53.37
2023-05-08T10:19:19.709Z,53.13
2023-05-08T10:21:49.315Z,53.17
2023-05-08T10:24:19.004Z,52.80
2023-05-08T10:27:05.711Z,53.13
2023-05-08T10:29:42.191Z,52.90
2023-05-08T10:32:11.653Z,53.17
2023-05-08T10:34:41.932Z,52.37
2023-05-08T10:37:11.239Z,52.77
2023-05-08T10:39:41.290Z,53.07
2023-05-08T10:42:10.474Z,52.80
2023-05-08T10:44:39.424Z,52.70
2023-05-08T10:47:17.391Z,52.70
2023-05-08T10:49:52.797Z,52.77
2023-05-08T10:52:30.601Z,52.67
2023-05-08T10:55:17.625Z,52.73
2023-05-08T10:58:06.391Z,52.70
2023-05-08T11:00:54.702Z,52.90
2023-05-08T11:03:32.144Z,52.67
2023-05-08T11:06:02.116Z,52.60
2023-05-08T11:08:31.400Z,52.90
2023-05-08T11:11:06.633Z,52.93
2023-05-08T11:13:36.949Z,52.80
2023-05-08T11:16:06.463Z,52.50
2023-05-08T11:18:48.478Z,52.50
2023-05-08T11:21:22.125Z,53.37
2023-05-08T11:23:58.053Z,53.00
2023-05-08T11:26:40.636Z,53.07
2023-05-08T11:29:18.628Z,53.13
2023-05-08T11:31:53.732Z,53.63
2023-05-08T11:34:49.800Z,53.10
2023-05-08T11:37:19.602Z,53.30
2023-05-08T11:39:48.257Z,53.43
2023-05-08T11:42:37.004Z,53.63
2023-05-08T11:45:08.620Z,52.77
2023-05-08T11:47:42.256Z,52.90
2023-05-08T11:50:11.505Z,52.70
2023-05-08T11:52:41.077Z,52.73
2023-05-08T11:55:10.840Z,53.40
2023-05-08T11:57:39.443Z,53.53
2023-05-08T12:00:10.711Z,52.83
2023-05-08T12:02:39.811Z,53.27
2023-05-08T12:05:08.592Z,52.83
2023-05-08T12:07:44.593Z,53.20
2023-05-08T12:10:12.943Z,52.73
2023-05-08T12:12:42.073Z,53.43
2023-05-08T12:15:13.589Z,52.37
2023-05-08T12:17:41.641Z,52.80
2023-05-08T12:20:14.551Z,52.23
2023-05-08T12:22:43.324Z,53.23
2023-05-08T12:25:12.847Z,52.27
2023-05-08T12:27:41.001Z,53.10
2023-05-08T12:30:13.025Z,53.03
2023-05-08T12:32:42.782Z,52.40
2023-05-08T12:35:11.979Z,53.67
2023-05-08T12:37:40.392Z,53.03
2023-05-08T12:40:22.943Z,53.30
2023-05-08T12:42:51.839Z,53.70
2023-05-08T12:45:21.978Z,53.53
2023-05-08T12:47:50.780Z,52.73
2023-05-08T12:50:21.891Z,53.30
2023-05-08T12:52:51.773Z,52.97
2023-05-08T12:55:24.671Z,53.20
2023-05-08T12:58:01.088Z,53.73
2023-05-08T13:00:37.894Z,53.40
2023-05-08T13:03:07.442Z,53.13
2023-05-08T13:05:36.366Z,53.27
2023-05-08T13:08:05.535Z,53.47
2023-05-08T13:10:50.899Z,53.80
2023-05-08T13:13:20.900Z,53.33
2023-05-08T13:15:51.394Z,52.97
2023-05-08T13:18:20.314Z,53.27
2023-05-08T13:20:48.442Z,53.23
2023-05-08T13:23:16.581Z,52.70
2023-05-08T13:25:44.424Z,53.17
2023-05-08T13:28:12.379Z,52.87
2023-05-08T13:30:40.467Z,52.97
2023-05-08T13:33:10.070Z,53.00
2023-05-08T13:35:38.145Z,52.97
2023-05-08T13:38:06.159Z,53.07
2023-05-08T13:40:34.291Z,53.00
2023-05-08T13:43:02.155Z,53.20
2023-05-08T13:45:30.303Z,53.07
2023-05-08T13:47:58.352Z,52.97
2023-05-08T13:50:27.696Z,53.33
2023-05-08T13:52:55.526Z,52.63
2023-05-08T13:55:24.837Z,52.87
2023-05-08T13:57:52.695Z,53.10
2023-05-08T14:00:21.161Z,52.00
2023-05-08T14:02:51.536Z,52.27
2023-05-08T14:05:20.271Z,52.63
2023-05-08T14:07:49.438Z,52.37
2023-05-08T14:10:17.928Z,52.10
2023-05-08T14:12:46.533Z,52.53
2023-05-08T14:15:14.609Z,52.33
2023-05-08T14:17:43.217Z,52.80
2023-05-08T14:20:12.304Z,51.90
2023-05-08T14:22:40.274Z,52.40
2023-05-08T14:25:11.051Z,52.33
2023-05-08T14:27:39.024Z,52.40
2023-05-08T14:30:08.378Z,52.43
2023-05-08T14:32:36.255Z,52.23
2023-05-08T14:35:04.121Z,52.47
2023-05-08T14:37:32.121Z,52.73
2023-05-08T14:40:00.009Z,52.37
2023-05-08T14:42:29.138Z,52.33
2023-05-08T14:44:56.974Z,51.57
2023-05-08T14:47:25.619Z,52.50
2023-05-08T14:49:54.308Z,51.70
2023-05-08T14:52:22.172Z,52.47
2023-05-08T14:54:53.007Z,52.70
2023-05-08T14:57:21.522Z,52.27
2023-05-08T15:02:21.770Z,52.17
2023-05-08T15:04:49.560Z,52.70
2023-05-08T15:07:17.424Z,52.90
2023-05-08T15:09:45.230Z,52.77
2023-05-08T15:12:13.110Z,52.87
2023-05-08T15:14:40.970Z,52.90
2023-05-08T15:17:10.483Z,53.17
2023-05-08T15:19:38.642Z,52.50
2023-05-08T15:22:06.450Z,52.07
2023-05-08T15:24:34.315Z,52.43
2023-05-08T15:27:02.269Z,52.67
2023-05-08T15:29:30.189Z,52.80
2023-05-08T15:31:58.174Z,52.40
2023-05-08T15:34:32.410Z,52.93
2023-05-08T15:37:00.699Z,52.23
2023-05-08T15:39:28.535Z,52.27
2023-05-08T15:41:56.385Z,52.50
2023-05-08T15:44:26.628Z,52.47
2023-05-08T15:46:56.622Z,52.47
2023-05-08T15:49:25.934Z,52.23
2023-05-08T15:51:55.221Z,52.23
2023-05-08T15:54:23.895Z,52.20
2023-05-08T15:56:51.666Z,52.50
2023-05-08T15:59:19.517Z,52.40
2023-05-08T16:01:47.489Z,52.50
2023-05-08T16:04:15.416Z,52.37
2023-05-08T16:06:43.186Z,52.13
2023-05-08T16:09:12.308Z,52.47
2023-05-08T16:11:40.149Z,52.33
2023-05-08T16:14:08.082Z,52.40
2023-05-08T16:16:35.923Z,52.43
2023-05-08T16:19:03.812Z,51.83
2023-05-08T16:21:31.746Z,51.43
2023-05-08T16:23:59.612Z,52.30
2023-05-08T16:26:28.785Z,52.10
2023-05-08T16:28:56.901Z,51.90
2023-05-08T16:31:24.765Z,51.63
2023-05-08T16:33:52.645Z,51.80
2023-05-08T16:36:20.512Z,52.33
2023-05-08T16:38:48.335Z,51.63
2023-05-08T16:41:16.176Z,51.40
2023-05-08T16:43:45.396Z,52.13
2023-05-08T16:46:13.374Z,52.13
2023-05-08T16:48:42.168Z,51.33
2023-05-08T16:51:09.997Z,51.90
2023-05-08T16:53:38.584Z,51.67
2023-05-08T16:56:06.817Z,51.47
2023-05-08T16:58:34.667Z,52.70
2023-05-08T17:01:04.415Z,52.07
2023-05-08T17:03:32.351Z,52.00
2023-05-08T17:06:00.206Z,52.67
2023-05-08T17:08:28.018Z,52.13
2023-05-08T17:10:56.520Z,52.13
2023-05-08T17:13:24.772Z,52.27
2023-05-08T17:15:52.645Z,51.70
2023-05-08T17:18:21.844Z,51.30
2023-05-08T17:20:49.661Z,51.37
2023-05-08T17:23:17.494Z,51.77
2023-05-08T17:25:45.321Z,51.83
2023-05-08T17:28:13.138Z,51.60
2023-05-08T17:30:41.068Z,51.43
2023-05-08T17:33:08.983Z,51.90
2023-05-08T17:35:38.162Z,51.47
2023-05-08T17:38:06.118Z,52.00
2023-05-08T17:40:34.083Z,51.97
2023-05-08T17:43:02.135Z,51.80
2023-05-08T17:45:30.009Z,52.40
2023-05-08T17:47:58.064Z,52.13
2023-05-08T17:50:26.146Z,51.80
2023-05-08T17:52:55.362Z,51.87
2023-05-08T17:55:23.565Z,51.17
2023-05-08T17:57:51.380Z,51.73
2023-05-08T18:00:19.743Z,51.60
2023-05-08T18:02:47.714Z,51.70
2023-05-08T18:05:15.776Z,51.57
2023-05-08T18:07:43.617Z,51.63
2023-05-08T18:10:13.182Z,51.70
2023-05-08T18:12:41.493Z,51.37
2023-05-08T18:15:10.080Z,51.30
2023-05-08T18:17:37.947Z,51.37
2023-05-08T18:20:07.777Z,51.07
2023-05-08T18:22:35.952Z,51.50
2023-05-08T18:25:04.140Z,50.90
2023-05-08T18:27:34.187Z,51.17
2023-05-08T18:30:02.078Z,51.30
2023-05-08T18:32:29.995Z,51.10
2023-05-08T18:34:57.883Z,51.53
2023-05-08T18:37:25.747Z,51.10
2023-05-08T18:39:53.977Z,51.27
2023-05-08T18:42:21.873Z,50.50
2023-05-08T18:44:51.037Z,51.27
2023-05-08T18:47:18.831Z,51.10
2023-05-08T18:49:46.666Z,51.10
2023-05-08T18:52:15.124Z,51.17
2023-05-08T18:54:42.937Z,51.13
2023-05-08T18:57:10.748Z,51.17
2023-05-08T18:59:38.586Z,50.80
2023-05-08T19:02:07.743Z,50.73
2023-05-08T19:04:35.930Z,50.67
2023-05-08T19:07:03.746Z,51.00
2023-05-08T19:09:33.460Z,51.23
2023-05-08T19:12:01.290Z,50.67
2023-05-08T19:14:29.130Z,50.93
2023-05-08T19:16:58.514Z,50.77
2023-05-08T19:19:28.051Z,50.70
2023-05-08T19:21:55.928Z,51.17
2023-05-08T19:24:24.854Z,51.07
2023-05-08T19:26:52.785Z,50.70
2023-05-08T19:29:20.731Z,50.57
2023-05-08T19:31:48.835Z,50.77
2023-05-08T19:34:16.960Z,51.00
2023-05-08T19:36:46.367Z,51.23
2023-05-08T19:39:14.634Z,51.03
2023-05-08T19:41:44.345Z,51.17
2023-05-08T19:44:12.200Z,51.50
2023-05-08T19:46:40.526Z,51.30
2023-05-08T19:49:08.363Z,51.03
2023-05-08T19:51:36.214Z,51.33
2023-05-08T19:54:05.629Z,51.27
2023-05-08T19:56:34.924Z,51.10
2023-05-08T19:59:02.761Z,50.93
2023-05-08T20:01:30.805Z,51.20
2023-05-08T20:04:00.703Z,51.50
2023-05-08T20:06:29.606Z,51.37
2023-05-08T20:08:57.540Z,51.27
2023-05-08T20:11:26.845Z,50.80
2023-05-08T20:13:54.892Z,50.97
2023-05-08T20:16:22.818Z,51.00
2023-05-08T20:18:53.413Z,50.93
2023-05-08T20:21:21.648Z,51.23
2023-05-08T20:23:50.110Z,51.30
2023-05-08T20:26:17.946Z,51.47
2023-05-08T20:28:47.157Z,51.40
2023-05-08T20:31:15.034Z,51.27
2023-05-08T20:33:42.871Z,51.37
2023-05-08T20:36:10.736Z,51.17
2023-05-08T20:38:38.689Z,51.43
2023-05-08T20:41:06.845Z,51.63
2023-05-08T20:43:34.661Z,50.93
2023-05-08T20:46:03.910Z,51.23
2023-05-08T20:48:31.801Z,51.13
2023-05-08T20:50:59.639Z,51.27
2023-05-08T20:53:27.449Z,51.27
2023-05-08T20:56:01.368Z,50.93
2023-05-08T20:58:29.427Z,50.93
2023-05-08T21:00:57.270Z,51.13
2023-05-08T21:03:26.561Z,51.03
2023-05-08T21:05:56.144Z,50.87
2023-05-08T21:08:26.209Z,50.63
2023-05-08T21:10:54.045Z,50.93
2023-05-08T21:13:22.242Z,51.17
2023-05-08T21:15:50.735Z,51.23
2023-05-08T21:18:18.807Z,51.10
2023-05-08T21:20:50.552Z,51.00
2023-05-08T21:23:18.971Z,51.17
2023-05-08T21:25:47.550Z,51.03
2023-05-08T21:28:16.203Z,50.87
2023-05-08T21:30:44.177Z,50.77
2023-05-08T21:33:13.653Z,50.60
2023-05-08T21:35:42.297Z,50.97
2023-05-08T21:38:12.456Z,50.43
2023-05-08T21:40:40.458Z,50.93
2023-05-08T21:43:08.543Z,50.60
2023-05-08T21:45:36.686Z,50.83
2023-05-08T21:48:04.853Z,50.47
2023-05-08T21:50:32.895Z,50.53
2023-05-08T21:53:00.865Z,50.80
2023-05-08T21:55:32.256Z,50.47
2023-05-08T21:58:00.342Z,50.03
2023-05-08T22:00:28.177Z,50.63
2023-05-08T22:02:56.108Z,50.33
2023-05-08T22:05:24.557Z,50.40
2023-05-08T22:07:52.404Z,50.50
2023-05-08T22:10:21.343Z,50.57
2023-05-08T22:12:50.717Z,50.50
2023-05-08T22:15:29.116Z,50.43
2023-05-08T22:17:58.441Z,50.33
2023-05-08T22:20:26.577Z,49.97
2023-05-08T22:22:54.461Z,49.87
2023-05-08T22:25:22.351Z,50.33
2023-05-08T22:27:51.553Z,50.30
2023-05-08T22:30:19.480Z,50.47
2023-05-08T22:32:54.490Z,50.37
2023-05-08T22:35:24.194Z,50.37
2023-05-08T22:37:52.490Z,50.23
2023-05-08T22:40:20.536Z,50.13
2023-05-08T22:42:48.966Z,50.23
2023-05-08T22:45:18.466Z,50.40
2023-05-08T22:47:46.722Z,50.13
2023-05-08T22:50:14.914Z,50.37
2023-05-08T22:52:43.344Z,50.17
2023-05-08T22:55:11.241Z,50.57
2023-05-08T22:57:39.182Z,50.47
2023-05-08T23:00:08.712Z,50.10
2023-05-08T23:02:37.963Z,50.57
2023-05-08T23:05:06.805Z,50.40
2023-05-08T23:07:34.653Z,50.33
2023-05-08T23:10:02.458Z,50.57
2023-05-08T23:12:30.628Z,50.17
2023-05-08T23:14:58.696Z,49.87
2023-05-08T23:17:26.584Z,50.53
2023-05-08T23:19:55.774Z,50.47
2023-05-08T23:22:23.593Z,50.17
2023-05-08T23:24:51.436Z,50.37
2023-05-08T23:27:19.254Z,50.00
2023-05-08T23:29:47.233Z,50.33
2023-05-08T23:32:15.262Z,50.30
2023-05-08T23:34:43.396Z,50.20
2023-05-08T23:37:12.586Z,50.30
2023-05-08T23:39:41.634Z,50.20
2023-05-08T23:42:09.611Z,50.03
2023-05-08T23:44:37.405Z,50.47
2023-05-08T23:47:06.027Z,50.47
2023-05-08T23:49:33.864Z,50.33
2023-05-08T23:52:01.678Z,50.37
2023-05-08T23:54:31.104Z,50.37
2023-05-08T23:56:58.918Z,50.07
2023-05-08T23:59:27.014Z,49.80
